createdAt,value
2022-08-21T00:05:06.864Z,74.8
2022-08-21T00:11:00.329Z,75.5
2022-08-21T00:16:51.585Z,73.6
2022-08-21T00:22:49.378Z,73.4
2022-08-21T00:28:44.897Z,74.9
2022-08-21T00:34:36.598Z,73.8
2022-08-21T00:40:28.586Z,75.7
2022-08-21T00:46:19.228Z,74.5
2022-08-21T00:52:18.227Z,74.7
2022-08-21T00:58:11.109Z,74.8
2022-08-21T01:04:05.989Z,75.2
2022-08-21T01:09:57.693Z,75.3
2022-08-21T01:15:51.219Z,74.6
2022-08-21T01:21:43.905Z,75.9
2022-08-21T01:27:38.544Z,76.7
2022-08-21T01:33:32.700Z,76.1
2022-08-21T01:39:26.034Z,76.6
2022-08-21T01:45:16.973Z,76.8
2022-08-21T01:51:09.383Z,76.9
2022-08-21T01:57:00.010Z,77.2
2022-08-21T02:02:53.488Z,78.2
2022-08-21T02:08:45.855Z,77.5
2022-08-21T02:14:39.615Z,77.6
2022-08-21T02:20:30.135Z,78.5
2022-08-21T02:26:22.666Z,78.3
2022-08-21T02:32:15.936Z,81
2022-08-21T02:38:06.871Z,79.7
2022-08-21T02:44:03.674Z,78.4
2022-08-21T02:49:55.417Z,79.9
2022-08-21T02:55:47.233Z,79.9
2022-08-21T03:01:38.631Z,80.6
2022-08-21T03:07:30.355Z,81.2
2022-08-21T03:13:21.130Z,81.1
2022-08-21T03:19:12.293Z,81.3
2022-08-21T03:25:08.252Z,82.9
2022-08-21T03:31:03.404Z,81.5
2022-08-21T03:36:55.372Z,81.4
2022-08-21T03:42:46.405Z,80.6
2022-08-21T03:48:37.120Z,81.2
2022-08-21T03:54:30.413Z,81
2022-08-21T04:00:21.648Z,83.2
2022-08-21T04:06:13.775Z,80.8
2022-08-21T04:12:07.253Z,81.8
2022-08-21T04:18:00.075Z,82.4
2022-08-21T04:23:50.751Z,80.9
2022-08-21T04:29:43.214Z,81.5
2022-08-21T04:35:35.070Z,82.1
2022-08-21T05:08:46.624Z,79.5
2022-08-21T06:01:50.441Z,59.4
2022-08-21T06:08:00.856Z,71.7
2022-08-21T06:13:55.363Z,74.3
2022-08-21T06:19:56.885Z,74.4
2022-08-21T06:25:58.115Z,74.6
2022-08-21T06:32:00.864Z,74.3
2022-08-21T06:38:04.812Z,74.3
2022-08-21T06:44:10.553Z,73.6
2022-08-21T06:50:17.935Z,74.3
2022-08-21T07:03:18.467Z,74.2
2022-08-21T07:15:49.364Z,73.3
2022-08-21T07:21:51.808Z,73.4
2022-08-21T07:27:43.463Z,73.5
2022-08-21T07:33:57.801Z,73.5
2022-08-21T07:40:15.917Z,74.1
2022-08-21T07:46:08.505Z,73.5
2022-08-21T07:58:23.583Z,72.5
2022-08-21T08:05:00.341Z,71.9
2022-08-21T08:11:17.916Z,70.6
2022-08-21T08:17:38.209Z,70.9
2022-08-21T08:23:40.142Z,69.7
2022-08-21T08:29:32.365Z,69
2022-08-21T08:35:26.267Z,67.1
2022-08-21T08:48:17.518Z,66.1
2022-08-21T08:54:09.764Z,64.1
2022-08-21T09:00:04.136Z,62.8
2022-08-21T09:05:58.646Z,61.2
2022-08-21T09:11:50.328Z,61.5
2022-08-21T09:17:43.879Z,60.9
2022-08-21T09:23:36.049Z,61.2
2022-08-21T09:36:25.461Z,57.7
2022-08-21T09:42:17.299Z,56
2022-08-21T09:48:09.472Z,56.3
2022-08-21T09:54:12.816Z,56.8
2022-08-21T10:00:06.663Z,56.3
2022-08-21T10:05:59.716Z,56.4
2022-08-21T10:11:54.515Z,55.7
2022-08-21T10:17:47.159Z,55
2022-08-21T10:23:51.880Z,52.5
2022-08-21T10:30:04.111Z,50.7
2022-08-21T10:35:57.685Z,53.3
2022-08-21T10:42:15.973Z,52.5
2022-08-21T10:48:24.317Z,53.2
2022-08-21T10:54:23.450Z,51.1
2022-08-21T11:00:19.584Z,51.5
2022-08-21T11:06:22.945Z,49.7
2022-08-21T11:12:31.139Z,48.8
2022-08-21T11:18:41.553Z,48.9
2022-08-21T11:25:05.474Z,47.7
2022-08-21T11:30:59.014Z,47.5
2022-08-21T11:36:50.748Z,45.9
2022-08-21T11:42:59.207Z,46.1
2022-08-21T11:49:16.336Z,46
2022-08-21T11:55:17.119Z,45.5
2022-08-21T12:01:20.442Z,45.2
2022-08-21T12:07:24.669Z,44.9
2022-08-21T12:13:45.113Z,44.6
2022-08-21T12:19:43.685Z,45.5
2022-08-21T12:25:44.460Z,44.4
2022-08-21T12:31:39.278Z,43.7
2022-08-21T12:37:37.099Z,44.3
2022-08-21T12:43:51.290Z,43.2
2022-08-21T12:49:50.455Z,42.4
2022-08-21T12:55:42.147Z,41.3
2022-08-21T13:01:50.532Z,42.5
2022-08-21T13:07:55.401Z,41.1
2022-08-21T13:14:16.177Z,40.5
2022-08-21T13:20:12.178Z,40.9
2022-08-21T13:26:03.882Z,40.8
2022-08-21T13:32:08.083Z,39.9
2022-08-21T13:38:27.385Z,40.6
2022-08-21T13:44:32.471Z,40.7
2022-08-21T13:50:54.264Z,39.8
2022-08-21T13:56:47.970Z,39.5
2022-08-21T14:03:06.555Z,39.9
2022-08-21T14:09:35.426Z,40.2
2022-08-21T14:15:31.595Z,39.7
2022-08-21T14:21:27.935Z,39.3
2022-08-21T14:27:20.265Z,39.7
2022-08-21T14:33:20.468Z,39.6
2022-08-21T14:39:41.480Z,39.8
2022-08-21T14:45:37.733Z,40.3
2022-08-21T14:51:31.768Z,40.1
2022-08-21T14:57:42.441Z,41.1
2022-08-21T15:03:35.232Z,41.5
2022-08-21T15:09:27.124Z,41.5
2022-08-21T15:15:20.753Z,41.7
2022-08-21T15:21:14.936Z,41.7
2022-08-21T15:27:18.466Z,42.3
2022-08-21T15:33:13.530Z,42.2
2022-08-21T15:39:05.635Z,42.8
2022-08-21T15:44:57.281Z,43
2022-08-21T15:50:48.694Z,43.4
2022-08-21T15:56:40.707Z,43.8
2022-08-21T16:02:32.002Z,44
2022-08-21T16:08:23.210Z,44.4
2022-08-21T16:14:15.392Z,44.9
2022-08-21T16:20:07.062Z,44.9
2022-08-21T16:25:58.941Z,45.1
2022-08-21T16:32:00.631Z,45.5
2022-08-21T16:37:56.100Z,45.3
2022-08-21T16:43:47.558Z,45.5
2022-08-21T16:49:40.623Z,45.6
2022-08-21T16:55:34.566Z,45.7
2022-08-21T17:01:27.383Z,45.8
2022-08-21T17:07:20.147Z,46
2022-08-21T17:13:12.791Z,45.8
2022-08-21T17:19:03.313Z,45.9
2022-08-21T17:24:56.439Z,45.9
2022-08-21T17:30:47.984Z,45.8
2022-08-21T17:36:42.881Z,46.1
2022-08-21T17:42:35.026Z,46.3
2022-08-21T17:48:28.201Z,45.8
2022-08-21T17:54:21.202Z,45.6
2022-08-21T18:00:13.465Z,45.5
2022-08-21T18:06:04.530Z,45.1
2022-08-21T18:12:05.543Z,45.1
2022-08-21T18:17:56.943Z,45.4
2022-08-21T18:23:49.097Z,45.5
2022-08-21T18:29:50.816Z,45.6
2022-08-21T18:35:43.805Z,45.7
2022-08-21T18:41:35.991Z,46
2022-08-21T18:47:26.232Z,46.2
2022-08-21T18:53:24.228Z,46.2
2022-08-21T18:59:22.166Z,46.2
2022-08-21T19:05:17.412Z,46.5
2022-08-21T22:48:32.182Z,60.3
2022-08-21T22:54:23.825Z,60.4
2022-08-21T23:00:17.613Z,61.1
2022-08-21T23:06:14.583Z,62.5
2022-08-21T23:12:22.814Z,63.4
2022-08-21T23:18:27.893Z,62.7
2022-08-21T23:24:21.279Z,63.5
2022-08-21T23:30:13.202Z,63.5
2022-08-21T23:36:07.743Z,63
2022-08-21T23:42:01.513Z,64.4
2022-08-21T23:47:55.346Z,64.4
2022-08-21T23:53:52.304Z,64.7
2022-08-21T23:59:42.627Z,66.4
